sensor_id;sensor_type;location;lat;lon;timestamp;P1;durP1;ratioP1;P2;durP2;ratioP2
76610;SDS011;65503;48.534;9.062;2023-01-09T00:01:24;4.10;;;1.48;;
76610;SDS011;65503;48.534;9.062;2023-01-09T00:03:53;2.95;;;1.58;;
76610;SDS011;65503;48.534;9.062;2023-01-09T00:06:20;2.70;;;1.45;;
76610;SDS011;65503;48.534;9.062;2023-01-09T00:08:46;2.58;;;1.30;;
76610;SDS011;65503;48.534;9.062;2023-01-09T00:11:13;2.88;;;1.40;;
76610;SDS011;65503;48.534;9.062;2023-01-09T00:13:39;1.65;;;1.02;;
76610;SDS011;65503;48.534;9.062;2023-01-09T00:16:06;1.80;;;1.10;;
76610;SDS011;65503;48.534;9.062;2023-01-09T00:18:33;3.00;;;1.27;;
76610;SDS011;65503;48.534;9.062;2023-01-09T00:21:01;2.03;;;1.23;;
76610;SDS011;65503;48.534;9.062;2023-01-09T00:23:29;2.42;;;1.20;;
76610;SDS011;65503;48.534;9.062;2023-01-09T00:26:03;2.00;;;1.00;;
76610;SDS011;65503;48.534;9.062;2023-01-09T00:28:38;2.42;;;1.20;;
76610;SDS011;65503;48.534;9.062;2023-01-09T00:31:05;1.50;;;0.98;;
76610;SDS011;65503;48.534;9.062;2023-01-09T00:33:34;1.42;;;1.00;;
76610;SDS011;65503;48.534;9.062;2023-01-09T00:36:03;0.98;;;0.82;;
76610;SDS011;65503;48.534;9.062;2023-01-09T00:38:30;1.88;;;1.10;;
76610;SDS011;65503;48.534;9.062;2023-01-09T00:40:57;1.73;;;0.90;;
76610;SDS011;65503;48.534;9.062;2023-01-09T00:43:27;1.85;;;0.88;;
76610;SDS011;65503;48.534;9.062;2023-01-09T00:45:57;1.77;;;1.00;;
76610;SDS011;65503;48.534;9.062;2023-01-09T00:48:26;1.33;;;0.80;;
76610;SDS011;65503;48.534;9.062;2023-01-09T00:50:54;1.17;;;0.80;;
76610;SDS011;65503;48.534;9.062;2023-01-09T00:53:24;2.35;;;0.90;;
76610;SDS011;65503;48.534;9.062;2023-01-09T00:55:55;1.13;;;0.80;;
76610;SDS011;65503;48.534;9.062;2023-01-09T00:58:26;1.85;;;1.00;;
76610;SDS011;65503;48.534;9.062;2023-01-09T01:00:53;1.50;;;1.00;;
76610;SDS011;65503;48.534;9.062;2023-01-09T01:03:19;1.77;;;0.80;;
76610;SDS011;65503;48.534;9.062;2023-01-09T01:05:46;1.75;;;0.90;;
76610;SDS011;65503;48.534;9.062;2023-01-09T01:08:31;1.27;;;0.70;;
76610;SDS011;65503;48.534;9.062;2023-01-09T01:10:57;0.77;;;0.73;;
76610;SDS011;65503;48.534;9.062;2023-01-09T01:13:28;1.33;;;0.93;;
76610;SDS011;65503;48.534;9.062;2023-01-09T01:15:54;1.70;;;0.90;;
76610;SDS011;65503;48.534;9.062;2023-01-09T01:18:21;1.58;;;1.08;;
76610;SDS011;65503;48.534;9.062;2023-01-09T01:20:47;1.17;;;0.75;;
76610;SDS011;65503;48.534;9.062;2023-01-09T01:23:14;1.45;;;0.77;;
76610;SDS011;65503;48.534;9.062;2023-01-09T01:25:41;1.45;;;0.80;;
76610;SDS011;65503;48.534;9.062;2023-01-09T01:28:08;1.38;;;0.70;;
76610;SDS011;65503;48.534;9.062;2023-01-09T01:30:39;0.77;;;0.70;;
76610;SDS011;65503;48.534;9.062;2023-01-09T01:33:06;1.05;;;0.70;;
76610;SDS011;65503;48.534;9.062;2023-01-09T01:38:01;1.48;;;0.85;;
76610;SDS011;65503;48.534;9.062;2023-01-09T01:40:28;0.88;;;0.80;;
76610;SDS011;65503;48.534;9.062;2023-01-09T01:42:55;1.75;;;0.85;;
76610;SDS011;65503;48.534;9.062;2023-01-09T01:45:23;1.25;;;0.90;;
76610;SDS011;65503;48.534;9.062;2023-01-09T01:47:53;1.85;;;0.90;;
76610;SDS011;65503;48.534;9.062;2023-01-09T01:50:32;3.03;;;0.90;;
76610;SDS011;65503;48.534;9.062;2023-01-09T01:53:13;1.27;;;0.80;;
76610;SDS011;65503;48.534;9.062;2023-01-09T01:58:19;1.50;;;0.90;;
76610;SDS011;65503;48.534;9.062;2023-01-09T02:00:47;1.77;;;0.80;;
76610;SDS011;65503;48.534;9.062;2023-01-09T02:03:14;1.50;;;0.90;;
76610;SDS011;65503;48.534;9.062;2023-01-09T02:05:43;1.52;;;0.95;;
76610;SDS011;65503;48.534;9.062;2023-01-09T02:08:10;1.58;;;1.00;;
76610;SDS011;65503;48.534;9.062;2023-01-09T02:10:38;1.52;;;1.10;;
76610;SDS011;65503;48.534;9.062;2023-01-09T02:13:05;1.73;;;0.80;;
76610;SDS011;65503;48.534;9.062;2023-01-09T02:15:47;0.88;;;0.70;;
76610;SDS011;65503;48.534;9.062;2023-01-09T02:18:39;2.15;;;0.70;;
76610;SDS011;65503;48.534;9.062;2023-01-09T02:21:37;1.40;;;0.80;;
76610;SDS011;65503;48.534;9.062;2023-01-09T02:24:32;1.00;;;0.60;;
76610;SDS011;65503;48.534;9.062;2023-01-09T02:38:50;0.57;;;0.47;;
76610;SDS011;65503;48.534;9.062;2023-01-09T02:41:27;1.17;;;0.70;;
76610;SDS011;65503;48.534;9.062;2023-01-09T02:44:10;0.73;;;0.70;;
76610;SDS011;65503;48.534;9.062;2023-01-09T02:46:42;1.52;;;0.70;;
76610;SDS011;65503;48.534;9.062;2023-01-09T02:49:09;0.65;;;0.60;;
76610;SDS011;65503;48.534;9.062;2023-01-09T02:51:39;0.65;;;0.60;;
76610;SDS011;65503;48.534;9.062;2023-01-09T02:54:25;1.08;;;0.77;;
76610;SDS011;65503;48.534;9.062;2023-01-09T02:57:07;0.70;;;0.65;;
76610;SDS011;65503;48.534;9.062;2023-01-09T03:05:29;0.65;;;0.65;;
76610;SDS011;65503;48.534;9.062;2023-01-09T03:08:07;0.88;;;0.70;;
76610;SDS011;65503;48.534;9.062;2023-01-09T03:10:42;0.95;;;0.70;;
76610;SDS011;65503;48.534;9.062;2023-01-09T03:13:14;1.00;;;0.70;;
76610;SDS011;65503;48.534;9.062;2023-01-09T03:15:44;0.70;;;0.70;;
76610;SDS011;65503;48.534;9.062;2023-01-09T03:18:16;1.73;;;0.93;;
76610;SDS011;65503;48.534;9.062;2023-01-09T03:20:47;1.13;;;0.80;;
76610;SDS011;65503;48.534;9.062;2023-01-09T03:23:15;1.80;;;0.90;;
76610;SDS011;65503;48.534;9.062;2023-01-09T03:25:41;1.25;;;0.90;;
76610;SDS011;65503;48.534;9.062;2023-01-09T03:28:11;4.00;;;2.63;;
76610;SDS011;65503;48.534;9.062;2023-01-09T03:30:44;1.73;;;1.00;;
76610;SDS011;65503;48.534;9.062;2023-01-09T03:33:10;0.70;;;0.70;;
76610;SDS011;65503;48.534;9.062;2023-01-09T03:35:37;1.08;;;0.90;;
76610;SDS011;65503;48.534;9.062;2023-01-09T03:38:03;0.70;;;0.70;;
76610;SDS011;65503;48.534;9.062;2023-01-09T03:40:32;0.40;;;0.40;;
76610;SDS011;65503;48.534;9.062;2023-01-09T03:42:58;1.02;;;0.70;;
76610;SDS011;65503;48.534;9.062;2023-01-09T03:45:25;0.63;;;0.60;;
76610;SDS011;65503;48.534;9.062;2023-01-09T03:47:52;1.35;;;0.50;;
76610;SDS011;65503;48.534;9.062;2023-01-09T03:50:18;0.43;;;0.43;;
76610;SDS011;65503;48.534;9.062;2023-01-09T03:52:45;0.50;;;0.47;;
76610;SDS011;65503;48.534;9.062;2023-01-09T03:55:11;1.25;;;0.57;;
76610;SDS011;65503;48.534;9.062;2023-01-09T03:57:40;0.60;;;0.52;;
76610;SDS011;65503;48.534;9.062;2023-01-09T04:00:07;0.50;;;0.40;;
76610;SDS011;65503;48.534;9.062;2023-01-09T04:02:34;0.70;;;0.50;;
76610;SDS011;65503;48.534;9.062;2023-01-09T04:05:01;0.55;;;0.45;;
76610;SDS011;65503;48.534;9.062;2023-01-09T04:07:27;0.30;;;0.30;;
76610;SDS011;65503;48.534;9.062;2023-01-09T04:09:54;0.80;;;0.55;;
76610;SDS011;65503;48.534;9.062;2023-01-09T04:12:20;0.40;;;0.40;;
76610;SDS011;65503;48.534;9.062;2023-01-09T04:14:46;0.73;;;0.73;;
76610;SDS011;65503;48.534;9.062;2023-01-09T04:17:13;0.40;;;0.40;;
76610;SDS011;65503;48.534;9.062;2023-01-09T04:19:41;1.25;;;0.30;;
76610;SDS011;65503;48.534;9.062;2023-01-09T04:22:08;0.40;;;0.40;;
76610;SDS011;65503;48.534;9.062;2023-01-09T04:24:34;0.30;;;0.30;;
76610;SDS011;65503;48.534;9.062;2023-01-09T04:27:01;0.30;;;0.30;;
76610;SDS011;65503;48.534;9.062;2023-01-09T04:29:27;0.22;;;0.22;;
76610;SDS011;65503;48.534;9.062;2023-01-09T04:31:53;0.20;;;0.20;;
76610;SDS011;65503;48.534;9.062;2023-01-09T04:34:20;0.77;;;0.40;;
76610;SDS011;65503;48.534;9.062;2023-01-09T04:36:50;0.20;;;0.20;;
76610;SDS011;65503;48.534;9.062;2023-01-09T04:39:18;1.25;;;0.50;;
76610;SDS011;65503;48.534;9.062;2023-01-09T04:41:44;3.03;;;0.40;;
76610;SDS011;65503;48.534;9.062;2023-01-09T04:44:23;0.30;;;0.30;;
76610;SDS011;65503;48.534;9.062;2023-01-09T04:46:54;0.28;;;0.20;;
76610;SDS011;65503;48.534;9.062;2023-01-09T04:49:22;0.40;;;0.40;;
76610;SDS011;65503;48.534;9.062;2023-01-09T04:51:48;0.28;;;0.28;;
76610;SDS011;65503;48.534;9.062;2023-01-09T04:54:15;0.40;;;0.30;;
76610;SDS011;65503;48.534;9.062;2023-01-09T04:56:42;0.30;;;0.30;;
76610;SDS011;65503;48.534;9.062;2023-01-09T04:59:08;0.10;;;0.10;;
76610;SDS011;65503;48.534;9.062;2023-01-09T05:01:35;0.30;;;0.30;;
76610;SDS011;65503;48.534;9.062;2023-01-09T05:04:01;0.35;;;0.35;;
76610;SDS011;65503;48.534;9.062;2023-01-09T05:06:29;0.85;;;0.40;;
76610;SDS011;65503;48.534;9.062;2023-01-09T05:08:56;0.55;;;0.40;;
76610;SDS011;65503;48.534;9.062;2023-01-09T05:11:23;0.20;;;0.20;;
76610;SDS011;65503;48.534;9.062;2023-01-09T05:13:51;0.50;;;0.30;;
76610;SDS011;65503;48.534;9.062;2023-01-09T05:16:18;0.75;;;0.40;;
76610;SDS011;65503;48.534;9.062;2023-01-09T05:18:45;0.70;;;0.55;;
76610;SDS011;65503;48.534;9.062;2023-01-09T05:21:11;1.40;;;0.47;;
76610;SDS011;65503;48.534;9.062;2023-01-09T05:23:38;2.15;;;0.47;;
76610;SDS011;65503;48.534;9.062;2023-01-09T05:26:04;0.77;;;0.40;;
76610;SDS011;65503;48.534;9.062;2023-01-09T05:28:31;2.33;;;0.70;;
76610;SDS011;65503;48.534;9.062;2023-01-09T05:30:58;0.40;;;0.40;;
76610;SDS011;65503;48.534;9.062;2023-01-09T05:33:24;0.77;;;0.47;;
76610;SDS011;65503;48.534;9.062;2023-01-09T05:35:50;1.38;;;0.50;;
76610;SDS011;65503;48.534;9.062;2023-01-09T05:38:17;0.82;;;0.57;;
76610;SDS011;65503;48.534;9.062;2023-01-09T05:40:43;0.50;;;0.45;;
76610;SDS011;65503;48.534;9.062;2023-01-09T05:43:10;0.40;;;0.40;;
76610;SDS011;65503;48.534;9.062;2023-01-09T05:45:36;0.70;;;0.70;;
76610;SDS011;65503;48.534;9.062;2023-01-09T05:48:03;1.80;;;0.60;;
76610;SDS011;65503;48.534;9.062;2023-01-09T05:50:29;0.80;;;0.50;;
76610;SDS011;65503;48.534;9.062;2023-01-09T05:52:56;0.50;;;0.50;;
76610;SDS011;65503;48.534;9.062;2023-01-09T05:55:22;0.30;;;0.30;;
76610;SDS011;65503;48.534;9.062;2023-01-09T05:57:49;0.68;;;0.43;;
76610;SDS011;65503;48.534;9.062;2023-01-09T06:00:15;0.75;;;0.47;;
76610;SDS011;65503;48.534;9.062;2023-01-09T06:02:42;0.98;;;0.43;;
76610;SDS011;65503;48.534;9.062;2023-01-09T06:05:09;0.60;;;0.32;;
76610;SDS011;65503;48.534;9.062;2023-01-09T06:07:35;1.27;;;0.57;;
76610;SDS011;65503;48.534;9.062;2023-01-09T06:10:06;0.90;;;0.57;;
76610;SDS011;65503;48.534;9.062;2023-01-09T06:12:35;0.95;;;0.60;;
76610;SDS011;65503;48.534;9.062;2023-01-09T06:15:02;1.20;;;0.60;;
76610;SDS011;65503;48.534;9.062;2023-01-09T06:17:28;0.80;;;0.68;;
76610;SDS011;65503;48.534;9.062;2023-01-09T06:19:55;1.13;;;0.60;;
76610;SDS011;65503;48.534;9.062;2023-01-09T06:22:21;1.67;;;0.70;;
76610;SDS011;65503;48.534;9.062;2023-01-09T06:24:48;1.45;;;0.75;;
76610;SDS011;65503;48.534;9.062;2023-01-09T06:27:14;1.23;;;0.60;;
76610;SDS011;65503;48.534;9.062;2023-01-09T06:29:41;2.33;;;0.90;;
76610;SDS011;65503;48.534;9.062;2023-01-09T06:32:07;1.13;;;0.60;;
76610;SDS011;65503;48.534;9.062;2023-01-09T06:34:33;4.47;;;0.63;;
76610;SDS011;65503;48.534;9.062;2023-01-09T06:37:00;4.90;;;0.60;;
76610;SDS011;65503;48.534;9.062;2023-01-09T06:39:26;1.77;;;0.70;;
76610;SDS011;65503;48.534;9.062;2023-01-09T06:41:53;1.10;;;0.57;;
76610;SDS011;65503;48.534;9.062;2023-01-09T06:44:19;2.83;;;0.63;;
76610;SDS011;65503;48.534;9.062;2023-01-09T06:46:46;2.28;;;0.80;;
76610;SDS011;65503;48.534;9.062;2023-01-09T06:49:12;1.75;;;0.60;;
76610;SDS011;65503;48.534;9.062;2023-01-09T06:51:38;2.72;;;0.77;;
76610;SDS011;65503;48.534;9.062;2023-01-09T06:54:06;3.10;;;0.70;;
76610;SDS011;65503;48.534;9.062;2023-01-09T06:56:32;3.72;;;0.80;;
76610;SDS011;65503;48.534;9.062;2023-01-09T06:58:59;4.20;;;0.80;;
76610;SDS011;65503;48.534;9.062;2023-01-09T07:01:26;2.42;;;0.80;;
76610;SDS011;65503;48.534;9.062;2023-01-09T07:03:53;4.05;;;0.82;;
76610;SDS011;65503;48.534;9.062;2023-01-09T07:06:20;1.35;;;0.70;;
76610;SDS011;65503;48.534;9.062;2023-01-09T07:08:46;5.28;;;1.20;;
76610;SDS011;65503;48.534;9.062;2023-01-09T07:11:13;2.70;;;1.35;;
76610;SDS011;65503;48.534;9.062;2023-01-09T07:13:39;1.05;;;0.60;;
76610;SDS011;65503;48.534;9.062;2023-01-09T07:16:06;2.47;;;0.85;;
76610;SDS011;65503;48.534;9.062;2023-01-09T07:18:32;1.77;;;0.80;;
76610;SDS011;65503;48.534;9.062;2023-01-09T07:20:59;1.58;;;0.80;;
76610;SDS011;65503;48.534;9.062;2023-01-09T07:23:25;3.08;;;0.90;;
76610;SDS011;65503;48.534;9.062;2023-01-09T07:25:52;2.47;;;0.82;;
76610;SDS011;65503;48.534;9.062;2023-01-09T07:28:18;1.45;;;0.82;;
76610;SDS011;65503;48.534;9.062;2023-01-09T07:30:45;7.75;;;1.23;;
76610;SDS011;65503;48.534;9.062;2023-01-09T07:33:11;3.30;;;0.98;;
76610;SDS011;65503;48.534;9.062;2023-01-09T07:35:38;3.42;;;0.80;;
76610;SDS011;65503;48.534;9.062;2023-01-09T07:38:04;3.92;;;1.17;;
76610;SDS011;65503;48.534;9.062;2023-01-09T07:40:30;3.08;;;0.70;;
76610;SDS011;65503;48.534;9.062;2023-01-09T07:42:57;4.38;;;0.90;;
76610;SDS011;65503;48.534;9.062;2023-01-09T07:45:23;1.23;;;0.63;;
76610;SDS011;65503;48.534;9.062;2023-01-09T07:47:50;3.38;;;0.90;;
76610;SDS011;65503;48.534;9.062;2023-01-09T07:50:17;5.32;;;0.95;;
76610;SDS011;65503;48.534;9.062;2023-01-09T07:52:44;5.05;;;1.00;;
76610;SDS011;65503;48.534;9.062;2023-01-09T07:55:11;3.92;;;0.98;;
76610;SDS011;65503;48.534;9.062;2023-01-09T07:57:41;3.63;;;0.65;;
76610;SDS011;65503;48.534;9.062;2023-01-09T08:00:09;2.25;;;0.73;;
76610;SDS011;65503;48.534;9.062;2023-01-09T08:02:38;0.73;;;0.52;;
76610;SDS011;65503;48.534;9.062;2023-01-09T08:05:05;1.85;;;0.75;;
76610;SDS011;65503;48.534;9.062;2023-01-09T08:07:34;2.88;;;0.63;;
76610;SDS011;65503;48.534;9.062;2023-01-09T08:10:00;3.72;;;0.70;;
76610;SDS011;65503;48.534;9.062;2023-01-09T08:12:27;1.58;;;0.55;;
76610;SDS011;65503;48.534;9.062;2023-01-09T08:14:53;0.98;;;0.60;;
76610;SDS011;65503;48.534;9.062;2023-01-09T08:17:19;3.88;;;0.52;;
76610;SDS011;65503;48.534;9.062;2023-01-09T08:19:46;4.38;;;0.80;;
76610;SDS011;65503;48.534;9.062;2023-01-09T08:22:12;1.75;;;0.68;;
76610;SDS011;65503;48.534;9.062;2023-01-09T08:24:39;4.65;;;0.68;;
76610;SDS011;65503;48.534;9.062;2023-01-09T08:27:05;3.47;;;0.80;;
76610;SDS011;65503;48.534;9.062;2023-01-09T08:29:32;2.75;;;0.73;;
76610;SDS011;65503;48.534;9.062;2023-01-09T08:31:58;3.00;;;0.77;;
76610;SDS011;65503;48.534;9.062;2023-01-09T08:34:25;2.08;;;1.00;;
76610;SDS011;65503;48.534;9.062;2023-01-09T08:36:51;8.38;;;1.00;;
76610;SDS011;65503;48.534;9.062;2023-01-09T08:39:19;2.40;;;0.90;;
76610;SDS011;65503;48.534;9.062;2023-01-09T08:41:45;2.20;;;0.70;;
76610;SDS011;65503;48.534;9.062;2023-01-09T08:44:30;1.90;;;0.70;;
76610;SDS011;65503;48.534;9.062;2023-01-09T08:47:16;5.10;;;0.82;;
76610;SDS011;65503;48.534;9.062;2023-01-09T08:49:46;4.78;;;0.73;;
76610;SDS011;65503;48.534;9.062;2023-01-09T08:52:13;2.80;;;0.70;;
76610;SDS011;65503;48.534;9.062;2023-01-09T08:54:39;4.88;;;1.00;;
76610;SDS011;65503;48.534;9.062;2023-01-09T08:57:06;2.95;;;0.70;;
76610;SDS011;65503;48.534;9.062;2023-01-09T08:59:33;4.65;;;0.75;;
76610;SDS011;65503;48.534;9.062;2023-01-09T09:01:59;2.78;;;0.77;;
76610;SDS011;65503;48.534;9.062;2023-01-09T09:04:26;6.32;;;1.65;;
76610;SDS011;65503;48.534;9.062;2023-01-09T09:06:53;5.25;;;1.20;;
76610;SDS011;65503;48.534;9.062;2023-01-09T09:09:19;13.50;;;8.43;;
76610;SDS011;65503;48.534;9.062;2023-01-09T09:11:46;5.50;;;3.22;;
76610;SDS011;65503;48.534;9.062;2023-01-09T09:14:12;4.88;;;1.85;;
76610;SDS011;65503;48.534;9.062;2023-01-09T09:16:57;1.98;;;0.95;;
76610;SDS011;65503;48.534;9.062;2023-01-09T09:19:24;4.03;;;1.90;;
76610;SDS011;65503;48.534;9.062;2023-01-09T09:21:50;7.25;;;1.05;;
76610;SDS011;65503;48.534;9.062;2023-01-09T09:24:17;4.70;;;0.93;;
76610;SDS011;65503;48.534;9.062;2023-01-09T09:26:43;3.33;;;1.17;;
76610;SDS011;65503;48.534;9.062;2023-01-09T09:29:10;5.85;;;1.70;;
76610;SDS011;65503;48.534;9.062;2023-01-09T09:31:37;6.93;;;1.10;;
76610;SDS011;65503;48.534;9.062;2023-01-09T09:34:04;2.38;;;0.75;;
76610;SDS011;65503;48.534;9.062;2023-01-09T09:36:31;5.88;;;1.00;;
76610;SDS011;65503;48.534;9.062;2023-01-09T09:38:58;2.92;;;1.23;;
76610;SDS011;65503;48.534;9.062;2023-01-09T09:52:42;2.70;;;0.90;;
76610;SDS011;65503;48.534;9.062;2023-01-09T09:55:20;3.33;;;1.33;;
76610;SDS011;65503;48.534;9.062;2023-01-09T09:57:52;3.20;;;1.02;;
76610;SDS011;65503;48.534;9.062;2023-01-09T10:00:21;3.92;;;1.10;;
76610;SDS011;65503;48.534;9.062;2023-01-09T10:02:57;4.93;;;1.52;;
76610;SDS011;65503;48.534;9.062;2023-01-09T10:05:28;10.18;;;3.65;;
76610;SDS011;65503;48.534;9.062;2023-01-09T10:08:01;10.85;;;2.45;;
76610;SDS011;65503;48.534;9.062;2023-01-09T10:10:51;6.47;;;1.98;;
76610;SDS011;65503;48.534;9.062;2023-01-09T10:13:19;7.10;;;2.10;;
76610;SDS011;65503;48.534;9.062;2023-01-09T10:21:57;3.67;;;1.52;;
76610;SDS011;65503;48.534;9.062;2023-01-09T10:35:46;3.88;;;0.90;;
76610;SDS011;65503;48.534;9.062;2023-01-09T10:38:24;8.02;;;0.95;;
76610;SDS011;65503;48.534;9.062;2023-01-09T10:41:02;2.35;;;0.80;;
76610;SDS011;65503;48.534;9.062;2023-01-09T10:43:41;3.42;;;0.85;;
76610;SDS011;65503;48.534;9.062;2023-01-09T10:46:17;3.45;;;0.95;;
76610;SDS011;65503;48.534;9.062;2023-01-09T10:48:50;2.55;;;0.90;;
76610;SDS011;65503;48.534;9.062;2023-01-09T10:51:23;5.13;;;1.25;;
76610;SDS011;65503;48.534;9.062;2023-01-09T10:53:55;5.40;;;0.80;;
76610;SDS011;65503;48.534;9.062;2023-01-09T10:56:25;3.03;;;0.70;;
76610;SDS011;65503;48.534;9.062;2023-01-09T10:59:02;4.00;;;0.90;;
76610;SDS011;65503;48.534;9.062;2023-01-09T11:01:29;3.97;;;0.77;;
76610;SDS011;65503;48.534;9.062;2023-01-09T11:03:58;4.38;;;1.05;;
76610;SDS011;65503;48.534;9.062;2023-01-09T11:06:39;5.78;;;1.05;;
76610;SDS011;65503;48.534;9.062;2023-01-09T11:09:10;7.22;;;1.35;;
76610;SDS011;65503;48.534;9.062;2023-01-09T11:11:38;4.15;;;0.80;;
76610;SDS011;65503;48.534;9.062;2023-01-09T11:14:13;6.10;;;1.10;;
76610;SDS011;65503;48.534;9.062;2023-01-09T11:16:57;4.05;;;0.90;;
76610;SDS011;65503;48.534;9.062;2023-01-09T11:19:30;3.60;;;0.80;;
76610;SDS011;65503;48.534;9.062;2023-01-09T11:22:10;9.23;;;1.80;;
76610;SDS011;65503;48.534;9.062;2023-01-09T11:24:41;7.07;;;2.17;;
76610;SDS011;65503;48.534;9.062;2023-01-09T11:27:21;8.82;;;1.95;;
76610;SDS011;65503;48.534;9.062;2023-01-09T11:32:34;6.90;;;1.63;;
76610;SDS011;65503;48.534;9.062;2023-01-09T11:35:04;7.65;;;1.90;;
76610;SDS011;65503;48.534;9.062;2023-01-09T11:37:32;6.47;;;2.28;;
76610;SDS011;65503;48.534;9.062;2023-01-09T11:39:59;5.70;;;1.30;;
76610;SDS011;65503;48.534;9.062;2023-01-09T11:42:27;3.13;;;0.80;;
76610;SDS011;65503;48.534;9.062;2023-01-09T11:47:41;3.72;;;0.80;;
76610;SDS011;65503;48.534;9.062;2023-01-09T11:50:18;2.75;;;0.80;;
76610;SDS011;65503;48.534;9.062;2023-01-09T11:52:46;8.00;;;1.00;;
76610;SDS011;65503;48.534;9.062;2023-01-09T11:55:38;1.65;;;1.05;;
76610;SDS011;65503;48.534;9.062;2023-01-09T11:58:12;5.18;;;1.15;;
76610;SDS011;65503;48.534;9.062;2023-01-09T12:00:57;3.55;;;0.90;;
76610;SDS011;65503;48.534;9.062;2023-01-09T12:03:36;3.80;;;0.80;;
76610;SDS011;65503;48.534;9.062;2023-01-09T12:15:13;4.55;;;1.05;;
76610;SDS011;65503;48.534;9.062;2023-01-09T12:20:32;3.28;;;0.80;;
76610;SDS011;65503;48.534;9.062;2023-01-09T12:23:19;4.45;;;0.85;;
76610;SDS011;65503;48.534;9.062;2023-01-09T12:28:46;3.33;;;0.80;;
76610;SDS011;65503;48.534;9.062;2023-01-09T12:31:21;1.88;;;0.90;;
76610;SDS011;65503;48.534;9.062;2023-01-09T12:37:08;1.17;;;0.55;;
76610;SDS011;65503;48.534;9.062;2023-01-09T12:48:01;3.60;;;0.73;;
76610;SDS011;65503;48.534;9.062;2023-01-09T12:56:20;1.00;;;0.40;;
76610;SDS011;65503;48.534;9.062;2023-01-09T12:58:55;0.30;;;0.20;;
76610;SDS011;65503;48.534;9.062;2023-01-09T13:01:31;1.30;;;0.50;;
76610;SDS011;65503;48.534;9.062;2023-01-09T13:04:14;0.65;;;0.40;;
76610;SDS011;65503;48.534;9.062;2023-01-09T13:06:52;0.20;;;0.20;;
76610;SDS011;65503;48.534;9.062;2023-01-09T13:14:43;1.75;;;0.40;;
76610;SDS011;65503;48.534;9.062;2023-01-09T13:17:20;1.48;;;0.47;;
76610;SDS011;65503;48.534;9.062;2023-01-09T13:19:50;1.75;;;0.50;;
76610;SDS011;65503;48.534;9.062;2023-01-09T13:22:18;1.45;;;0.50;;
76610;SDS011;65503;48.534;9.062;2023-01-09T13:25:48;1.73;;;0.60;;
76610;SDS011;65503;48.534;9.062;2023-01-09T13:27:55;1.70;;;0.80;;
76610;SDS011;65503;48.534;9.062;2023-01-09T13:35:52;0.90;;;0.50;;
76610;SDS011;65503;48.534;9.062;2023-01-09T13:38:21;1.42;;;0.55;;
76610;SDS011;65503;48.534;9.062;2023-01-09T13:40:59;0.57;;;0.38;;
76610;SDS011;65503;48.534;9.062;2023-01-09T13:43:51;1.40;;;0.40;;
76610;SDS011;65503;48.534;9.062;2023-01-09T13:46:30;0.57;;;0.55;;
76610;SDS011;65503;48.534;9.062;2023-01-09T13:49:00;1.92;;;0.52;;
76610;SDS011;65503;48.534;9.062;2023-01-09T13:54:08;2.75;;;0.70;;
76610;SDS011;65503;48.534;9.062;2023-01-09T13:59:39;2.33;;;1.23;;
76610;SDS011;65503;48.534;9.062;2023-01-09T14:02:51;1.10;;;0.50;;
76610;SDS011;65503;48.534;9.062;2023-01-09T14:07:51;0.60;;;0.50;;
76610;SDS011;65503;48.534;9.062;2023-01-09T14:10:29;1.13;;;0.52;;
76610;SDS011;65503;48.534;9.062;2023-01-09T14:13:05;5.32;;;0.80;;
76610;SDS011;65503;48.534;9.062;2023-01-09T14:15:39;1.05;;;0.60;;
76610;SDS011;65503;48.534;9.062;2023-01-09T14:18:17;2.08;;;0.50;;
76610;SDS011;65503;48.534;9.062;2023-01-09T14:20:55;2.08;;;0.73;;
76610;SDS011;65503;48.534;9.062;2023-01-09T14:34:51;1.50;;;0.80;;
76610;SDS011;65503;48.534;9.062;2023-01-09T14:37:22;0.57;;;0.57;;
76610;SDS011;65503;48.534;9.062;2023-01-09T14:39:52;2.17;;;0.50;;
76610;SDS011;65503;48.534;9.062;2023-01-09T14:42:20;2.38;;;0.80;;
76610;SDS011;65503;48.534;9.062;2023-01-09T14:44:55;2.75;;;0.70;;
76610;SDS011;65503;48.534;9.062;2023-01-09T14:50:04;2.30;;;1.00;;
76610;SDS011;65503;48.534;9.062;2023-01-09T14:52:43;3.65;;;0.70;;
76610;SDS011;65503;48.534;9.062;2023-01-09T14:55:16;0.40;;;0.40;;
76610;SDS011;65503;48.534;9.062;2023-01-09T14:57:49;1.65;;;0.55;;
76610;SDS011;65503;48.534;9.062;2023-01-09T15:00:20;2.15;;;0.90;;
76610;SDS011;65503;48.534;9.062;2023-01-09T15:05:17;1.73;;;0.63;;
76610;SDS011;65503;48.534;9.062;2023-01-09T15:07:50;1.20;;;0.65;;
76610;SDS011;65503;48.534;9.062;2023-01-09T15:10:21;4.38;;;1.17;;
76610;SDS011;65503;48.534;9.062;2023-01-09T15:12:50;1.98;;;0.98;;
76610;SDS011;65503;48.534;9.062;2023-01-09T15:15:19;3.65;;;1.20;;
76610;SDS011;65503;48.534;9.062;2023-01-09T15:17:50;0.65;;;0.57;;
76610;SDS011;65503;48.534;9.062;2023-01-09T15:20:22;0.60;;;0.45;;
76610;SDS011;65503;48.534;9.062;2023-01-09T15:22:51;2.00;;;0.60;;
76610;SDS011;65503;48.534;9.062;2023-01-09T15:25:33;1.60;;;0.65;;
76610;SDS011;65503;48.534;9.062;2023-01-09T15:28:27;2.53;;;0.70;;
76610;SDS011;65503;48.534;9.062;2023-01-09T15:30:55;3.03;;;0.93;;
76610;SDS011;65503;48.534;9.062;2023-01-09T15:33:26;2.05;;;0.70;;
76610;SDS011;65503;48.534;9.062;2023-01-09T15:35:53;2.70;;;0.80;;
76610;SDS011;65503;48.534;9.062;2023-01-09T15:38:25;1.08;;;0.57;;
76610;SDS011;65503;48.534;9.062;2023-01-09T15:40:56;0.88;;;0.70;;
76610;SDS011;65503;48.534;9.062;2023-01-09T15:45:56;1.40;;;0.60;;
76610;SDS011;65503;48.534;9.062;2023-01-09T15:48:25;1.25;;;0.75;;
76610;SDS011;65503;48.534;9.062;2023-01-09T15:51:00;3.10;;;0.82;;
76610;SDS011;65503;48.534;9.062;2023-01-09T15:53:29;1.67;;;0.80;;
76610;SDS011;65503;48.534;9.062;2023-01-09T15:58:41;3.83;;;1.10;;
76610;SDS011;65503;48.534;9.062;2023-01-09T16:04:05;1.40;;;0.82;;
76610;SDS011;65503;48.534;9.062;2023-01-09T16:06:36;4.20;;;1.23;;
76610;SDS011;65503;48.534;9.062;2023-01-09T16:09:17;2.38;;;0.82;;
76610;SDS011;65503;48.534;9.062;2023-01-09T16:11:49;2.80;;;1.00;;
76610;SDS011;65503;48.534;9.062;2023-01-09T16:14:22;3.13;;;1.10;;
76610;SDS011;65503;48.534;9.062;2023-01-09T16:17:05;1.45;;;0.80;;
76610;SDS011;65503;48.534;9.062;2023-01-09T16:24:53;2.05;;;1.05;;
76610;SDS011;65503;48.534;9.062;2023-01-09T16:29:54;2.95;;;0.90;;
76610;SDS011;65503;48.534;9.062;2023-01-09T16:32:28;4.95;;;0.90;;
76610;SDS011;65503;48.534;9.062;2023-01-09T16:35:04;3.40;;;0.90;;
76610;SDS011;65503;48.534;9.062;2023-01-09T16:37:33;3.08;;;1.35;;
76610;SDS011;65503;48.534;9.062;2023-01-09T16:42:47;4.07;;;1.20;;
76610;SDS011;65503;48.534;9.062;2023-01-09T16:45:27;2.97;;;1.38;;
76610;SDS011;65503;48.534;9.062;2023-01-09T16:50:36;3.85;;;1.10;;
76610;SDS011;65503;48.534;9.062;2023-01-09T16:53:09;3.03;;;1.20;;
76610;SDS011;65503;48.534;9.062;2023-01-09T16:55:39;1.02;;;0.82;;
76610;SDS011;65503;48.534;9.062;2023-01-09T16:58:07;4.60;;;1.00;;
76610;SDS011;65503;48.534;9.062;2023-01-09T17:00:38;4.70;;;1.05;;
76610;SDS011;65503;48.534;9.062;2023-01-09T17:03:05;3.25;;;0.88;;
76610;SDS011;65503;48.534;9.062;2023-01-09T17:05:31;2.78;;;0.90;;
76610;SDS011;65503;48.534;9.062;2023-01-09T17:07:58;2.55;;;0.90;;
76610;SDS011;65503;48.534;9.062;2023-01-09T17:10:24;2.22;;;0.80;;
76610;SDS011;65503;48.534;9.062;2023-01-09T17:12:51;3.88;;;1.20;;
76610;SDS011;65503;48.534;9.062;2023-01-09T17:15:17;1.75;;;0.90;;
76610;SDS011;65503;48.534;9.062;2023-01-09T17:17:44;3.03;;;0.98;;
76610;SDS011;65503;48.534;9.062;2023-01-09T17:20:15;3.03;;;0.93;;
76610;SDS011;65503;48.534;9.062;2023-01-09T17:22:42;1.50;;;0.88;;
76610;SDS011;65503;48.534;9.062;2023-01-09T17:25:12;5.10;;;1.20;;
76610;SDS011;65503;48.534;9.062;2023-01-09T17:27:59;3.45;;;1.08;;
76610;SDS011;65503;48.534;9.062;2023-01-09T17:30:45;1.33;;;0.70;;
76610;SDS011;65503;48.534;9.062;2023-01-09T17:33:15;2.58;;;1.00;;